Time;durP1;ratioP1;P1;durP2;ratioP2;P2;SDS_P1;SDS_P2;PMS_P1;PMS_P2;Temp;Humidity;BMP_temperature;BMP_pressure;BME280_temperature;BME280_humidity;BME280_pressure;Samples;Min_cycle;Max_cycle;Signal;HPM_P1;HPM_P2
2021/07/15 00:02:15;;;;;;;3.78;3.15;;;;;;;;;;5093581;28;20199;-59
2021/07/15 00:04:43;;;;;;;5.45;3.13;;;;;;;;;;5082349;28;20207;-58
2021/07/15 00:07:11;;;;;;;3.20;2.90;;;;;;;;;;5073032;28;20236;-60
2021/07/15 00:09:40;;;;;;;3.30;3.00;;;;;;;;;;5073408;28;20200;-60
2021/07/15 00:12:08;;;;;;;3.40;2.65;;;;;;;;;;5073295;28;20333;-59
2021/07/15 00:14:37;;;;;;;3.17;2.88;;;;;;;;;;5073072;28;20575;-59
2021/07/15 00:17:05;;;;;;;3.08;2.80;;;;;;;;;;5072943;28;20620;-59
2021/07/15 00:19:35;;;;;;;3.28;2.97;;;;;;;;;;5072983;28;20797;-60
2021/07/15 00:22:03;;;;;;;3.53;2.97;;;;;;;;;;5073507;28;20207;-60
2021/07/15 00:24:31;;;;;;;5.93;3.10;;;;;;;;;;5072962;28;20593;-59
2021/07/15 00:27:00;;;;;;;3.80;2.80;;;;;;;;;;5073099;28;20542;-60
2021/07/15 00:29:28;;;;;;;2.92;2.60;;;;;;;;;;5073115;28;20242;-59
2021/07/15 00:31:56;;;;;;;4.05;3.03;;;;;;;;;;5072846;28;20200;-60
2021/07/15 00:34:25;;;;;;;3.55;2.90;;;;;;;;;;5072979;28;20228;-59
2021/07/15 00:36:55;;;;;;;3.38;3.00;;;;;;;;;;5072818;28;20200;-60
2021/07/15 00:39:23;;;;;;;3.90;2.72;;;;;;;;;;5072995;28;20204;-59
2021/07/15 00:41:51;;;;;;;2.92;2.67;;;;;;;;;;5072565;28;20670;-61
2021/07/15 00:44:20;;;;;;;3.53;2.60;;;;;;;;;;5072826;28;20213;-60
2021/07/15 00:46:48;;;;;;;3.30;2.97;;;;;;;;;;5072574;28;20294;-59
2021/07/15 00:49:16;;;;;;;4.15;2.92;;;;;;;;;;5072809;28;20204;-61
2021/07/15 00:51:44;;;;;;;3.15;2.80;;;;;;;;;;5085845;28;20238;-59
2021/07/15 00:54:14;;;;;;;2.90;2.70;;;;;;;;;;5092827;28;20200;-60
2021/07/15 00:56:42;;;;;;;2.90;2.65;;;;;;;;;;5093025;28;20234;-60
2021/07/15 00:59:10;;;;;;;3.78;3.40;;;;;;;;;;5092937;28;20628;-60
2021/07/15 01:01:39;;;;;;;6.20;4.00;;;;;;;;;;5092588;28;20786;-59
2021/07/15 01:04:07;;;;;;;4.32;3.20;;;;;;;;;;5092529;28;20241;-60
2021/07/15 01:06:35;;;;;;;5.22;3.30;;;;;;;;;;5092494;28;20302;-60
2021/07/15 01:09:04;;;;;;;6.05;3.17;;;;;;;;;;5092695;28;20199;-60
2021/07/15 01:11:36;;;;;;;3.92;3.13;;;;;;;;;;5092392;28;20204;-60
2021/07/15 01:14:07;;;;;;;3.35;3.05;;;;;;;;;;5092653;28;20180;-59
2021/07/15 01:16:39;;;;;;;3.95;2.95;;;;;;;;;;5092290;28;20296;-59
2021/07/15 01:19:19;;;;;;;3.40;3.10;;;;;;;;;;5092093;28;20192;-59
2021/07/15 01:22:03;;;;;;;3.38;3.00;;;;;;;;;;5092320;28;20180;-62
2021/07/15 01:24:50;;;;;;;4.15;3.13;;;;;;;;;;5092330;28;20200;-61
2021/07/15 01:27:37;;;;;;;7.50;3.08;;;;;;;;;;5092169;28;20200;-59
2021/07/15 01:30:11;;;;;;;4.88;3.30;;;;;;;;;;5092311;28;20191;-60
2021/07/15 01:32:47;;;;;;;4.13;2.75;;;;;;;;;;5091820;28;20194;-60
2021/07/15 01:35:17;;;;;;;4.50;3.05;;;;;;;;;;5092077;28;20576;-60
2021/07/15 01:37:49;;;;;;;4.93;3.20;;;;;;;;;;5092177;28;20208;-60
2021/07/15 01:40:18;;;;;;;5.25;2.85;;;;;;;;;;5092399;28;20195;-60
2021/07/15 01:42:49;;;;;;;7.90;3.40;;;;;;;;;;5091865;28;20196;-59
2021/07/15 01:45:18;;;;;;;4.32;3.13;;;;;;;;;;5092151;28;20204;-59
2021/07/15 01:47:47;;;;;;;4.85;2.95;;;;;;;;;;5091767;28;20733;-59
2021/07/15 01:50:15;;;;;;;4.80;3.50;;;;;;;;;;5091863;28;20200;-59
2021/07/15 01:52:44;;;;;;;3.30;2.83;;;;;;;;;;5092157;28;20378;-60
2021/07/15 01:55:13;;;;;;;4.28;3.00;;;;;;;;;;5092100;28;20282;-58
2021/07/15 01:57:43;;;;;;;5.15;3.22;;;;;;;;;;5091844;28;20653;-59
2021/07/15 02:00:11;;;;;;;4.07;2.85;;;;;;;;;;5091899;28;20230;-59
2021/07/15 02:02:42;;;;;;;7.10;3.10;;;;;;;;;;5091869;28;20283;-59
2021/07/15 02:05:11;;;;;;;8.02;3.05;;;;;;;;;;5078973;28;20629;-59
2021/07/15 02:07:40;;;;;;;4.50;3.33;;;;;;;;;;5075697;28;20205;-60
2021/07/15 02:10:10;;;;;;;3.72;3.10;;;;;;;;;;5075414;28;20739;-59
2021/07/15 02:12:39;;;;;;;4.35;3.45;;;;;;;;;;5075793;28;20204;-59
2021/07/15 02:15:07;;;;;;;3.33;3.13;;;;;;;;;;5075661;28;20193;-60
2021/07/15 02:17:37;;;;;;;5.80;3.33;;;;;;;;;;5075518;28;20205;-59
2021/07/15 02:20:08;;;;;;;3.95;3.00;;;;;;;;;;5075550;28;20292;-60
2021/07/15 02:22:36;;;;;;;4.13;2.95;;;;;;;;;;5075071;28;20703;-59
2021/07/15 02:25:06;;;;;;;3.85;3.08;;;;;;;;;;5074981;28;20223;-60
2021/07/15 02:27:34;;;;;;;5.43;3.20;;;;;;;;;;5075429;28;20196;-61
2021/07/15 02:30:04;;;;;;;5.63;2.92;;;;;;;;;;5075059;28;20669;-59
2021/07/15 02:32:43;;;;;;;3.25;2.95;;;;;;;;;;5075313;28;20185;-59
2021/07/15 02:35:13;;;;;;;6.97;3.13;;;;;;;;;;5075052;28;20694;-60
2021/07/15 02:37:42;;;;;;;8.05;3.63;;;;;;;;;;5074968;28;20296;-59
2021/07/15 02:40:11;;;;;;;3.35;3.05;;;;;;;;;;5075047;28;20204;-59
2021/07/15 02:42:40;;;;;;;5.55;3.20;;;;;;;;;;5077634;28;20609;-60
2021/07/15 02:45:09;;;;;;;3.85;3.35;;;;;;;;;;5085501;28;20284;-59
2021/07/15 02:47:39;;;;;;;3.75;3.45;;;;;;;;;;5085595;28;20288;-59
2021/07/15 02:50:08;;;;;;;3.55;3.25;;;;;;;;;;5076231;28;20300;-61
2021/07/15 02:52:38;;;;;;;4.00;3.20;;;;;;;;;;5094580;28;20191;-60
2021/07/15 02:55:07;;;;;;;8.70;3.70;;;;;;;;;;5094655;28;20291;-59
2021/07/15 02:57:38;;;;;;;4.70;3.50;;;;;;;;;;5094827;28;20199;-60
2021/07/15 03:00:08;;;;;;;6.38;3.88;;;;;;;;;;5095064;28;20212;-60
2021/07/15 03:02:40;;;;;;;4.15;3.47;;;;;;;;;;5094728;28;20686;-59
2021/07/15 03:05:10;;;;;;;3.92;3.55;;;;;;;;;;5094807;28;20215;-60
2021/07/15 03:07:44;;;;;;;3.55;3.25;;;;;;;;;;5094546;28;20184;-58
2021/07/15 03:10:12;;;;;;;3.95;3.55;;;;;;;;;;5094580;28;20640;-58
2021/07/15 03:12:41;;;;;;;4.90;3.85;;;;;;;;;;5094588;28;20734;-60
2021/07/15 03:15:09;;;;;;;4.78;3.50;;;;;;;;;;5094683;28;20283;-61
2021/07/15 03:17:39;;;;;;;4.45;3.30;;;;;;;;;;5094554;28;20196;-60
2021/07/15 03:20:09;;;;;;;3.63;3.33;;;;;;;;;;5094772;28;20206;-60
2021/07/15 03:22:38;;;;;;;4.80;3.50;;;;;;;;;;5094571;28;20200;-60
2021/07/15 03:25:10;;;;;;;4.45;4.05;;;;;;;;;;5094561;28;20216;-62
2021/07/15 03:27:42;;;;;;;7.15;3.85;;;;;;;;;;5094636;28;20275;-58
2021/07/15 03:30:11;;;;;;;4.80;3.85;;;;;;;;;;5094274;28;20271;-60
2021/07/15 03:32:40;;;;;;;4.35;3.92;;;;;;;;;;5094338;28;20231;-60
2021/07/15 03:35:09;;;;;;;4.97;3.75;;;;;;;;;;5094512;28;20257;-59
2021/07/15 03:37:38;;;;;;;4.95;3.55;;;;;;;;;;5094168;28;20239;-59
2021/07/15 03:40:11;;;;;;;4.55;3.72;;;;;;;;;;5094215;28;20189;-59
2021/07/15 03:42:40;;;;;;;4.00;3.70;;;;;;;;;;5094278;28;20228;-59
2021/07/15 03:45:09;;;;;;;4.72;3.78;;;;;;;;;;5094121;28;20251;-60
2021/07/15 03:47:38;;;;;;;6.47;3.65;;;;;;;;;;5093613;28;20747;-59
2021/07/15 03:50:07;;;;;;;4.45;4.05;;;;;;;;;;5093929;28;20224;-59
2021/07/15 03:52:37;;;;;;;6.50;4.70;;;;;;;;;;5093844;28;20204;-59
2021/07/15 03:55:06;;;;;;;5.18;3.67;;;;;;;;;;5093655;28;20768;-60
2021/07/15 03:57:36;;;;;;;3.58;3.28;;;;;;;;;;5093615;28;20240;-60
2021/07/15 04:00:05;;;;;;;4.45;3.63;;;;;;;;;;5093802;28;20200;-59
2021/07/15 04:02:33;;;;;;;5.25;4.00;;;;;;;;;;5093661;28;20278;-59
2021/07/15 04:05:02;;;;;;;5.70;3.83;;;;;;;;;;5093631;28;20586;-59
2021/07/15 04:07:32;;;;;;;8.48;4.00;;;;;;;;;;5093459;28;20664;-59
2021/07/15 04:10:00;;;;;;;6.43;4.35;;;;;;;;;;5093661;28;20627;-60
2021/07/15 04:12:29;;;;;;;4.22;3.83;;;;;;;;;;5093411;28;20199;-59
2021/07/15 04:15:09;;;;;;;4.28;3.88;;;;;;;;;;5094214;28;20286;-61
2021/07/15 04:17:38;;;;;;;3.88;3.58;;;;;;;;;;5093773;28;20207;-60
2021/07/15 04:20:09;;;;;;;5.32;3.55;;;;;;;;;;5093836;28;20648;-59
2021/07/15 04:22:38;;;;;;;5.22;3.90;;;;;;;;;;5093966;28;20275;-60
2021/07/15 04:25:07;;;;;;;5.22;3.83;;;;;;;;;;5093937;28;20241;-60
2021/07/15 04:27:35;;;;;;;4.85;3.72;;;;;;;;;;5092789;28;20286;-60
2021/07/15 04:30:05;;;;;;;4.03;3.63;;;;;;;;;;5093318;28;20192;-60
2021/07/15 04:32:36;;;;;;;5.28;3.65;;;;;;;;;;5093199;28;20198;-59
2021/07/15 04:35:06;;;;;;;4.50;4.10;;;;;;;;;;5093441;28;20185;-59
2021/07/15 04:37:36;;;;;;;4.32;3.90;;;;;;;;;;5093657;28;20230;-59
2021/07/15 04:40:05;;;;;;;4.60;3.80;;;;;;;;;;5093663;28;20200;-60
2021/07/15 04:42:33;;;;;;;3.50;3.20;;;;;;;;;;5093606;28;20200;-58
2021/07/15 04:45:05;;;;;;;3.92;3.60;;;;;;;;;;5093323;28;20318;-59
2021/07/15 04:47:35;;;;;;;4.43;3.80;;;;;;;;;;5092961;28;20690;-59
2021/07/15 04:50:04;;;;;;;4.15;3.75;;;;;;;;;;5093294;28;20196;-59
2021/07/15 04:52:34;;;;;;;4.50;4.05;;;;;;;;;;5092466;28;20210;-59
2021/07/15 04:55:02;;;;;;;5.07;3.47;;;;;;;;;;5092631;28;20184;-59
2021/07/15 04:57:31;;;;;;;4.68;3.72;;;;;;;;;;5092321;28;20200;-59
2021/07/15 05:00:00;;;;;;;4.28;3.22;;;;;;;;;;5092438;28;20201;-60
2021/07/15 05:02:28;;;;;;;4.97;3.92;;;;;;;;;;5092239;28;20564;-60
2021/07/15 05:04:58;;;;;;;4.80;4.10;;;;;;;;;;5092017;28;20206;-59
2021/07/15 05:07:26;;;;;;;5.82;4.18;;;;;;;;;;5091674;28;20291;-59
2021/07/15 05:09:54;;;;;;;4.28;3.97;;;;;;;;;;5092441;28;20200;-60
2021/07/15 05:12:22;;;;;;;5.00;4.35;;;;;;;;;;5092168;28;20200;-60
2021/07/15 05:14:52;;;;;;;7.28;4.85;;;;;;;;;;5091973;28;20298;-58
2021/07/15 05:17:20;;;;;;;5.68;4.82;;;;;;;;;;5092025;28;20624;-59
2021/07/15 05:19:51;;;;;;;5.25;4.78;;;;;;;;;;5092305;28;20251;-58
2021/07/15 05:22:20;;;;;;;7.07;5.07;;;;;;;;;;5092388;28;20200;-60
2021/07/15 05:24:48;;;;;;;5.90;4.57;;;;;;;;;;5092292;28;20199;-59
2021/07/15 05:27:16;;;;;;;5.38;4.57;;;;;;;;;;5092098;28;20582;-60
2021/07/15 05:29:45;;;;;;;4.60;4.20;;;;;;;;;;5091827;28;20210;-59
2021/07/15 05:32:13;;;;;;;7.28;5.15;;;;;;;;;;5091904;28;20295;-59
2021/07/15 05:34:41;;;;;;;7.18;5.15;;;;;;;;;;5091805;28;20522;-60
2021/07/15 05:37:09;;;;;;;7.38;4.85;;;;;;;;;;5091957;28;20200;-59
2021/07/15 05:39:39;;;;;;;5.00;4.45;;;;;;;;;;5090731;28;20196;-59
2021/07/15 05:42:07;;;;;;;5.72;5.05;;;;;;;;;;5092295;28;20227;-60
2021/07/15 05:44:35;;;;;;;4.95;4.53;;;;;;;;;;5091401;28;20669;-59
2021/07/15 05:47:04;;;;;;;6.22;4.32;;;;;;;;;;5091311;28;20224;-59
2021/07/15 05:49:36;;;;;;;6.50;4.93;;;;;;;;;;5091572;28;20220;-60
2021/07/15 05:52:04;;;;;;;5.70;4.97;;;;;;;;;;5055777;28;1030948;-59
2021/07/15 05:54:33;;;;;;;9.55;5.20;;;;;;;;;;5092673;28;20196;-61
2021/07/15 05:57:02;;;;;;;5.45;4.90;;;;;;;;;;5092514;28;20664;-59
2021/07/15 05:59:30;;;;;;;7.60;4.85;;;;;;;;;;5092858;28;20210;-60
2021/07/15 06:01:58;;;;;;;5.00;4.50;;;;;;;;;;5092939;28;20202;-60
2021/07/15 06:04:28;;;;;;;5.15;4.40;;;;;;;;;;5092384;28;20200;-60
2021/07/15 06:06:56;;;;;;;4.43;4.03;;;;;;;;;;5092273;28;20323;-60
2021/07/15 06:09:24;;;;;;;5.35;4.80;;;;;;;;;;5092318;28;20294;-59
2021/07/15 06:11:53;;;;;;;6.93;4.22;;;;;;;;;;5092520;28;20200;-60
2021/07/15 06:14:23;;;;;;;5.20;4.72;;;;;;;;;;5092538;28;20207;-59
2021/07/15 06:16:51;;;;;;;8.10;5.82;;;;;;;;;;5092626;28;20220;-59
2021/07/15 06:19:19;;;;;;;7.97;4.40;;;;;;;;;;5092080;28;20231;-59
2021/07/15 06:21:47;;;;;;;8.00;4.28;;;;;;;;;;5092197;28;20287;-60
2021/07/15 06:24:15;;;;;;;8.50;4.97;;;;;;;;;;5092275;28;20204;-59
2021/07/15 06:26:44;;;;;;;8.82;5.32;;;;;;;;;;5092303;28;20219;-58
2021/07/15 06:29:12;;;;;;;5.10;4.38;;;;;;;;;;5092551;28;20231;-61
2021/07/15 06:31:42;;;;;;;5.80;4.90;;;;;;;;;;5092421;28;20202;-60
2021/07/15 06:34:10;;;;;;;6.03;5.18;;;;;;;;;;5092301;28;20200;-59
2021/07/15 06:36:39;;;;;;;5.75;4.80;;;;;;;;;;5092257;28;20219;-61
2021/07/15 06:39:08;;;;;;;5.78;4.80;;;;;;;;;;5092059;28;20214;-60
2021/07/15 06:41:36;;;;;;;6.13;4.22;;;;;;;;;;5092251;28;20291;-59
2021/07/15 06:44:04;;;;;;;5.75;4.38;;;;;;;;;;5092285;28;20244;-60
2021/07/15 06:46:33;;;;;;;5.38;4.05;;;;;;;;;;5092229;28;20208;-59
2021/07/15 06:49:03;;;;;;;4.45;3.83;;;;;;;;;;5092095;28;20202;-60
2021/07/15 06:51:31;;;;;;;3.90;3.55;;;;;;;;;;5094074;28;20238;-59
2021/07/15 06:53:59;;;;;;;5.32;3.70;;;;;;;;;;5095408;28;20639;-59
2021/07/15 06:56:27;;;;;;;5.43;2.92;;;;;;;;;;5095469;28;20752;-60
2021/07/15 06:58:55;;;;;;;3.72;3.05;;;;;;;;;;5095609;28;20210;-60
2021/07/15 07:01:24;;;;;;;3.30;2.92;;;;;;;;;;5095326;28;20208;-60
2021/07/15 07:03:52;;;;;;;3.63;2.83;;;;;;;;;;5095369;28;20200;-59
2021/07/15 07:06:21;;;;;;;3.00;2.80;;;;;;;;;;5095017;28;20216;-60
2021/07/15 07:08:49;;;;;;;3.60;2.70;;;;;;;;;;5095511;28;20206;-60
2021/07/15 07:11:18;;;;;;;3.95;3.08;;;;;;;;;;5095138;28;20222;-60
2021/07/15 07:13:46;;;;;;;5.43;3.58;;;;;;;;;;5095484;28;20291;-60
2021/07/15 07:16:14;;;;;;;4.90;3.53;;;;;;;;;;5095423;28;20200;-60
2021/07/15 07:18:42;;;;;;;8.07;3.58;;;;;;;;;;5095200;28;20250;-60
2021/07/15 07:21:11;;;;;;;3.90;3.47;;;;;;;;;;5094878;28;20543;-60
2021/07/15 07:23:40;;;;;;;3.30;3.00;;;;;;;;;;5095377;28;20206;-59
2021/07/15 07:26:08;;;;;;;4.32;3.92;;;;;;;;;;5095062;28;20235;-60
2021/07/15 07:28:37;;;;;;;3.40;3.00;;;;;;;;;;5094994;28;20204;-60
2021/07/15 07:31:05;;;;;;;3.22;2.92;;;;;;;;;;5100657;28;20303;-59
2021/07/15 07:33:33;;;;;;;2.90;2.70;;;;;;;;;;5099573;28;20305;-59
2021/07/15 07:36:01;;;;;;;3.53;2.95;;;;;;;;;;5097153;28;20785;-60
2021/07/15 07:38:29;;;;;;;4.07;2.70;;;;;;;;;;5094674;28;20290;-59
2021/07/15 07:40:59;;;;;;;3.35;3.05;;;;;;;;;;5094673;28;20202;-60
2021/07/15 07:43:27;;;;;;;3.63;3.10;;;;;;;;;;5094576;28;20201;-60
2021/07/15 07:45:55;;;;;;;3.10;2.90;;;;;;;;;;5094106;28;20305;-59
2021/07/15 07:48:23;;;;;;;3.33;2.70;;;;;;;;;;5094045;28;20224;-60
2021/07/15 07:50:53;;;;;;;2.83;2.60;;;;;;;;;;5076134;28;20232;-59
2021/07/15 07:53:21;;;;;;;3.63;2.33;;;;;;;;;;5094715;28;20287;-60
2021/07/15 07:55:49;;;;;;;3.33;2.90;;;;;;;;;;5094515;28;20559;-61
2021/07/15 07:58:19;;;;;;;2.80;2.60;;;;;;;;;;5094546;28;20211;-60
2021/07/15 08:00:47;;;;;;;3.08;2.78;;;;;;;;;;5088877;28;20192;-59
2021/07/15 08:03:17;;;;;;;3.60;3.30;;;;;;;;;;5075169;28;20205;-59
2021/07/15 08:05:45;;;;;;;3.15;2.42;;;;;;;;;;5094807;28;20200;-60
2021/07/15 08:08:14;;;;;;;2.95;2.75;;;;;;;;;;5094363;28;20308;-59
2021/07/15 08:10:42;;;;;;;2.63;2.42;;;;;;;;;;5094349;28;20264;-60
2021/07/15 08:13:10;;;;;;;2.42;2.33;;;;;;;;;;5093974;28;20204;-60
2021/07/15 08:15:40;;;;;;;2.90;2.60;;;;;;;;;;5094480;28;20287;-60
2021/07/15 08:18:08;;;;;;;6.07;2.80;;;;;;;;;;5074508;28;20261;-60
2021/07/15 08:20:37;;;;;;;3.05;2.72;;;;;;;;;;5073627;28;20205;-60
2021/07/15 08:23:06;;;;;;;3.00;2.60;;;;;;;;;;5073789;28;20212;-59
2021/07/15 08:25:35;;;;;;;2.60;2.40;;;;;;;;;;5073849;28;20403;-60
2021/07/15 08:28:03;;;;;;;2.97;2.25;;;;;;;;;;5073502;28;20221;-60
2021/07/15 08:30:31;;;;;;;2.03;1.92;;;;;;;;;;5073506;28;20630;-60
2021/07/15 08:33:01;;;;;;;2.88;2.67;;;;;;;;;;5074828;28;20201;-59
2021/07/15 08:35:31;;;;;;;2.78;2.58;;;;;;;;;;5094017;28;20199;-59
2021/07/15 08:38:00;;;;;;;2.78;2.58;;;;;;;;;;5093778;28;20287;-62
2021/07/15 08:40:28;;;;;;;2.92;2.65;;;;;;;;;;5093739;28;20307;-60
2021/07/15 08:42:57;;;;;;;2.55;2.35;;;;;;;;;;5093847;28;20267;-59
2021/07/15 08:45:26;;;;;;;3.35;3.10;;;;;;;;;;5093756;28;20210;-59
2021/07/15 08:47:56;;;;;;;3.10;2.90;;;;;;;;;;5093458;28;20220;-60
2021/07/15 08:50:25;;;;;;;3.00;2.70;;;;;;;;;;5093212;28;20199;-61
2021/07/15 08:52:54;;;;;;;3.85;2.90;;;;;;;;;;5093601;28;20275;-60
2021/07/15 08:58:05;;;;;;;2.55;2.35;;;;;;;;;;5059583;28;20200;-59
2021/07/15 09:00:33;;;;;;;2.90;2.60;;;;;;;;;;5093313;28;20206;-59
2021/07/15 09:03:02;;;;;;;2.88;2.58;;;;;;;;;;5092936;28;20231;-60
2021/07/15 09:05:32;;;;;;;2.97;2.63;;;;;;;;;;5093290;28;20652;-60
2021/07/15 09:08:01;;;;;;;3.08;2.80;;;;;;;;;;5084003;28;20216;-60
2021/07/15 09:10:29;;;;;;;4.35;2.60;;;;;;;;;;5072607;28;20713;-60
2021/07/15 09:12:58;;;;;;;2.75;2.55;;;;;;;;;;5072533;28;20295;-59
2021/07/15 09:15:26;;;;;;;2.70;2.50;;;;;;;;;;5072617;28;20208;-60
2021/07/15 09:17:55;;;;;;;2.35;2.20;;;;;;;;;;5072533;28;20192;-59
2021/07/15 09:20:24;;;;;;;3.47;3.22;;;;;;;;;;5072872;28;20201;-60
2021/07/15 09:23:01;;;;;;;2.72;2.53;;;;;;;;;;5072860;28;20197;-59
2021/07/15 09:25:30;;;;;;;2.80;2.60;;;;;;;;;;5072792;28;20184;-60
2021/07/15 09:27:59;;;;;;;2.95;2.72;;;;;;;;;;5072769;28;20256;-60
2021/07/15 09:30:28;;;;;;;2.72;2.53;;;;;;;;;;5072756;28;20197;-59
2021/07/15 09:32:57;;;;;;;2.50;2.30;;;;;;;;;;5072693;28;20196;-59
2021/07/15 09:35:27;;;;;;;3.40;2.67;;;;;;;;;;5072441;28;20284;-60
2021/07/15 09:37:55;;;;;;;2.88;2.67;;;;;;;;;;5072393;28;20254;-60
2021/07/15 09:40:40;;;;;;;2.88;2.30;;;;;;;;;;5072743;28;20201;-60
2021/07/15 09:43:13;;;;;;;2.90;2.70;;;;;;;;;;5072634;28;20181;-59
2021/07/15 09:45:41;;;;;;;2.58;2.38;;;;;;;;;;5072240;28;20201;-59
2021/07/15 09:48:19;;;;;;;3.55;2.60;;;;;;;;;;5072007;28;20680;-60
2021/07/15 09:50:48;;;;;;;2.85;2.50;;;;;;;;;;5077874;28;20331;-60
2021/07/15 09:53:17;;;;;;;3.38;3.00;;;;;;;;;;5092631;28;20200;-61
2021/07/15 09:55:47;;;;;;;2.70;2.50;;;;;;;;;;5092551;28;20231;-59
2021/07/15 09:58:16;;;;;;;3.20;2.83;;;;;;;;;;5092608;28;20192;-60
2021/07/15 10:00:44;;;;;;;2.88;2.58;;;;;;;;;;5092375;28;20195;-60
2021/07/15 10:03:13;;;;;;;3.65;2.70;;;;;;;;;;5092321;28;20203;-59
2021/07/15 10:05:50;;;;;;;6.20;2.65;;;;;;;;;;5092679;28;20283;-60
2021/07/15 10:08:27;;;;;;;3.45;2.72;;;;;;;;;;5092430;28;20218;-61
2021/07/15 10:10:57;;;;;;;3.03;2.83;;;;;;;;;;5092562;28;20225;-61
2021/07/15 10:13:26;;;;;;;2.90;2.65;;;;;;;;;;5092157;28;20733;-61
2021/07/15 10:15:54;;;;;;;3.17;2.88;;;;;;;;;;5092488;28;20208;-60
2021/07/15 10:18:35;;;;;;;2.85;2.65;;;;;;;;;;5092352;28;20224;-60
2021/07/15 10:21:05;;;;;;;2.70;2.50;;;;;;;;;;5092254;28;20227;-60
2021/07/15 10:23:34;;;;;;;3.72;2.63;;;;;;;;;;5092108;28;20246;-59
2021/07/15 10:26:24;;;;;;;2.88;2.67;;;;;;;;;;5094814;28;20192;-60
2021/07/15 10:28:52;;;;;;;2.60;2.40;;;;;;;;;;5096132;28;20238;-61
2021/07/15 10:31:21;;;;;;;2.60;2.50;;;;;;;;;;5095820;28;20743;-60
2021/07/15 10:33:50;;;;;;;3.05;2.85;;;;;;;;;;5095924;28;20202;-59
2021/07/15 10:36:18;;;;;;;2.80;2.60;;;;;;;;;;5095611;28;20208;-60
2021/07/15 10:38:51;;;;;;;2.70;2.50;;;;;;;;;;5096091;28;20196;-59
2021/07/15 10:41:22;;;;;;;4.20;2.60;;;;;;;;;;5096001;28;20274;-60
2021/07/15 10:43:53;;;;;;;3.95;2.58;;;;;;;;;;5095601;28;20812;-60
2021/07/15 10:46:27;;;;;;;2.92;2.47;;;;;;;;;;5096021;28;20242;-60
2021/07/15 10:49:15;;;;;;;2.58;2.38;;;;;;;;;;5095599;28;20585;-59
2021/07/15 10:51:45;;;;;;;2.50;2.30;;;;;;;;;;5095329;28;20670;-59
2021/07/15 10:54:14;;;;;;;2.78;2.58;;;;;;;;;;5095697;28;20203;-60
2021/07/15 10:56:42;;;;;;;3.70;2.50;;;;;;;;;;5095785;28;20296;-59
2021/07/15 10:59:24;;;;;;;2.67;2.47;;;;;;;;;;5095599;28;20652;-59
2021/07/15 11:01:52;;;;;;;2.95;2.67;;;;;;;;;;5095410;28;20725;-60
2021/07/15 11:04:22;;;;;;;2.80;2.60;;;;;;;;;;5095167;28;20204;-60
2021/07/15 11:06:51;;;;;;;5.43;2.78;;;;;;;;;;5095319;28;20599;-60
2021/07/15 11:09:27;;;;;;;2.95;2.65;;;;;;;;;;5075513;28;20294;-61
2021/07/15 11:11:57;;;;;;;2.35;2.20;;;;;;;;;;5075164;28;20204;-62
2021/07/15 11:14:40;;;;;;;2.42;2.22;;;;;;;;;;5075218;28;20309;-62
2021/07/15 11:17:25;;;;;;;2.70;2.50;;;;;;;;;;5074882;28;20184;-60
2021/07/15 11:19:54;;;;;;;2.40;2.20;;;;;;;;;;5074628;28;20272;-59
2021/07/15 11:22:45;;;;;;;2.45;2.25;;;;;;;;;;5074940;28;20201;-61
2021/07/15 11:25:15;;;;;;;2.47;2.28;;;;;;;;;;5074634;28;20203;-60
2021/07/15 11:27:44;;;;;;;2.45;2.25;;;;;;;;;;5075095;28;20295;-60
2021/07/15 11:30:26;;;;;;;2.20;2.00;;;;;;;;;;5074855;28;20220;-61
2021/07/15 11:32:55;;;;;;;2.47;2.33;;;;;;;;;;5074423;28;20688;-59
2021/07/15 11:35:30;;;;;;;2.75;2.47;;;;;;;;;;5074935;28;20295;-61
2021/07/15 11:38:06;;;;;;;2.42;2.25;;;;;;;;;;5074719;28;20271;-60
2021/07/15 11:40:45;;;;;;;2.30;2.20;;;;;;;;;;5074929;28;20284;-60
2021/07/15 11:43:20;;;;;;;2.30;2.10;;;;;;;;;;5075070;28;20299;-60
2021/07/15 11:46:09;;;;;;;2.28;2.05;;;;;;;;;;5074574;28;20188;-60
2021/07/15 11:48:45;;;;;;;2.50;2.30;;;;;;;;;;5074563;28;20287;-62
2021/07/15 11:51:40;;;;;;;2.53;2.33;;;;;;;;;;5083221;28;20224;-59
2021/07/15 11:54:29;;;;;;;2.75;2.50;;;;;;;;;;5094371;28;20250;-59
2021/07/15 11:56:58;;;;;;;2.97;2.78;;;;;;;;;;5094282;28;20195;-59
2021/07/15 11:59:37;;;;;;;2.78;2.50;;;;;;;;;;5094570;28;20276;-61
2021/07/15 12:02:09;;;;;;;3.17;2.72;;;;;;;;;;5094277;28;20237;-59
2021/07/15 12:04:56;;;;;;;2.60;2.40;;;;;;;;;;5094329;28;20212;-60
2021/07/15 12:07:24;;;;;;;2.63;2.13;;;;;;;;;;5094244;28;20287;-60
2021/07/15 12:09:53;;;;;;;3.13;2.47;;;;;;;;;;5093927;28;20307;-59
2021/07/15 12:12:21;;;;;;;2.42;2.22;;;;;;;;;;5093953;28;20204;-61
2021/07/15 12:14:52;;;;;;;2.40;2.20;;;;;;;;;;5094457;28;20336;-59
2021/07/15 12:17:22;;;;;;;2.25;1.92;;;;;;;;;;5094833;28;20322;-60
2021/07/15 12:19:54;;;;;;;3.40;2.50;;;;;;;;;;5094380;28;20200;-60
2021/07/15 12:22:22;;;;;;;2.72;2.17;;;;;;;;;;5094608;28;20266;-60
2021/07/15 12:24:52;;;;;;;2.60;2.40;;;;;;;;;;5094383;28;20204;-59
2021/07/15 12:27:20;;;;;;;2.65;2.45;;;;;;;;;;5093791;28;20281;-59
2021/07/15 12:29:55;;;;;;;2.75;2.20;;;;;;;;;;5093947;28;20315;-59
2021/07/15 12:32:26;;;;;;;2.50;2.30;;;;;;;;;;5093656;28;20663;-62
2021/07/15 12:34:54;;;;;;;2.78;2.58;;;;;;;;;;5093495;28;20295;-59
2021/07/15 12:37:22;;;;;;;2.60;2.40;;;;;;;;;;5093692;28;20196;-60
2021/07/15 12:39:57;;;;;;;2.97;2.30;;;;;;;;;;5093787;28;20196;-59
2021/07/15 12:42:26;;;;;;;2.58;2.38;;;;;;;;;;5093534;28;20243;-59
2021/07/15 12:44:54;;;;;;;2.42;2.25;;;;;;;;;;5093450;28;20294;-59
2021/07/15 12:47:22;;;;;;;2.80;2.60;;;;;;;;;;5093703;28;20196;-59
2021/07/15 12:49:52;;;;;;;2.45;2.30;;;;;;;;;;5093009;28;20226;-58
2021/07/15 12:52:20;;;;;;;2.80;2.60;;;;;;;;;;5093126;28;20299;-60
2021/07/15 12:54:54;;;;;;;2.83;2.63;;;;;;;;;;5093174;28;20728;-61
2021/07/15 12:57:22;;;;;;;2.15;2.05;;;;;;;;;;5093586;28;20190;-59
2021/07/15 12:59:50;;;;;;;4.20;2.60;;;;;;;;;;5093581;28;20200;-60
2021/07/15 13:02:30;;;;;;;2.72;2.50;;;;;;;;;;5093188;28;20705;-60
2021/07/15 13:05:00;;;;;;;2.90;2.70;;;;;;;;;;5093199;28;20198;-59
2021/07/15 13:07:28;;;;;;;2.55;2.45;;;;;;;;;;5092796;28;20200;-61
2021/07/15 13:10:09;;;;;;;3.42;3.13;;;;;;;;;;5092881;28;20310;-59
2021/07/15 13:15:23;;;;;;;3.08;2.78;;;;;;;;;;5092952;28;20218;-59
2021/07/15 13:17:51;;;;;;;2.92;2.72;;;;;;;;;;5092954;28;20583;-60
2021/07/15 13:20:22;;;;;;;2.90;2.70;;;;;;;;;;5093049;28;20210;-60
2021/07/15 13:22:51;;;;;;;2.70;2.50;;;;;;;;;;5092771;28;20194;-60
2021/07/15 13:25:21;;;;;;;4.15;2.75;;;;;;;;;;5093184;28;20283;-60
2021/07/15 13:27:50;;;;;;;3.00;2.80;;;;;;;;;;5093637;28;20184;-59
2021/07/15 13:30:21;;;;;;;3.03;2.72;;;;;;;;;;5093336;28;20219;-58
2021/07/15 13:32:49;;;;;;;5.05;2.72;;;;;;;;;;5093239;28;20187;-60
2021/07/15 13:35:21;;;;;;;3.05;2.85;;;;;;;;;;5092752;28;20206;-59
2021/07/15 13:37:51;;;;;;;3.00;2.50;;;;;;;;;;5092944;28;20190;-59
2021/07/15 13:40:20;;;;;;;3.33;3.03;;;;;;;;;;5093405;28;20196;-60
2021/07/15 13:42:48;;;;;;;4.72;3.35;;;;;;;;;;5093069;28;20199;-59
2021/07/15 13:45:23;;;;;;;3.10;2.83;;;;;;;;;;5093094;28;20200;-59
2021/07/15 13:47:51;;;;;;;2.75;2.55;;;;;;;;;;5093308;28;20230;-59
2021/07/15 13:50:21;;;;;;;3.05;2.65;;;;;;;;;;5092896;28;20219;-61
2021/07/15 13:52:53;;;;;;;2.97;2.78;;;;;;;;;;5092923;28;20180;-59
2021/07/15 13:55:22;;;;;;;3.08;2.88;;;;;;;;;;5093081;28;20219;-60
2021/07/15 13:57:51;;;;;;;2.72;2.53;;;;;;;;;;5092757;28;20208;-60
2021/07/15 14:00:21;;;;;;;4.45;2.90;;;;;;;;;;5093265;28;20291;-60
2021/07/15 14:02:50;;;;;;;3.65;2.88;;;;;;;;;;5096635;28;20298;-60
2021/07/15 14:05:23;;;;;;;3.05;2.85;;;;;;;;;;5097193;28;20199;-60
2021/07/15 14:07:53;;;;;;;3.55;2.70;;;;;;;;;;5096487;28;20724;-60
2021/07/15 14:10:21;;;;;;;3.35;2.50;;;;;;;;;;5096705;28;20223;-59
2021/07/15 14:12:50;;;;;;;3.20;2.90;;;;;;;;;;5096628;28;20206;-60
2021/07/15 14:15:23;;;;;;;3.35;3.05;;;;;;;;;;5096614;28;20188;-60
2021/07/15 14:17:58;;;;;;;3.08;2.72;;;;;;;;;;5096953;28;20541;-60
2021/07/15 14:20:26;;;;;;;3.30;3.00;;;;;;;;;;5096977;28;20196;-60
2021/07/15 14:22:58;;;;;;;3.17;2.97;;;;;;;;;;5096834;28;20206;-59
2021/07/15 14:25:26;;;;;;;3.10;2.90;;;;;;;;;;5096793;28;20238;-60
2021/07/15 14:27:55;;;;;;;3.50;2.85;;;;;;;;;;5096478;28;20250;-59
2021/07/15 14:30:24;;;;;;;3.50;2.60;;;;;;;;;;5096365;28;20220;-60
2021/07/15 14:32:53;;;;;;;3.80;3.40;;;;;;;;;;5096654;28;20204;-60
2021/07/15 14:35:21;;;;;;;3.55;2.80;;;;;;;;;;5096302;28;20290;-60
2021/07/15 14:37:50;;;;;;;2.60;2.40;;;;;;;;;;5096521;28;20216;-60
2021/07/15 14:40:19;;;;;;;3.60;2.90;;;;;;;;;;5096649;28;20202;-59
2021/07/15 14:42:48;;;;;;;3.22;3.03;;;;;;;;;;5096504;28;20301;-59
2021/07/15 14:45:17;;;;;;;3.22;2.92;;;;;;;;;;5096042;28;20230;-60
2021/07/15 14:47:46;;;;;;;3.25;3.05;;;;;;;;;;5096045;28;20200;-60
2021/07/15 14:50:15;;;;;;;3.35;2.97;;;;;;;;;;5095192;28;20208;-60
2021/07/15 14:52:48;;;;;;;4.03;3.13;;;;;;;;;;5095968;28;20184;-60
2021/07/15 14:55:18;;;;;;;3.17;2.97;;;;;;;;;;5095742;28;20686;-60
2021/07/15 14:57:47;;;;;;;2.97;2.78;;;;;;;;;;5095983;28;20243;-61
2021/07/15 15:00:16;;;;;;;3.38;3.03;;;;;;;;;;5095876;28;20206;-60
2021/07/15 15:02:44;;;;;;;2.90;2.70;;;;;;;;;;5095781;28;20206;-61
2021/07/15 15:05:13;;;;;;;3.33;3.03;;;;;;;;;;5095495;28;20208;-60
2021/07/15 15:07:42;;;;;;;3.95;3.08;;;;;;;;;;5089133;28;20676;-62